Time;durP1;ratioP1;P1;durP2;ratioP2;P2;SDS_P1;SDS_P2;PMS_P1;PMS_P2;Temp;Humidity;BMP_temperature;BMP_pressure;BME280_temperature;BME280_humidity;BME280_pressure;Samples;Min_cycle;Max_cycle;Signal;HPM_P1;HPM_P2
2021/09/22 00:00:21;;;;;;;;;;;15.80;61.80;;;;;;5022154;28;86374;-49
2021/09/22 00:02:47;;;;;;;;;;;15.80;61.90;;;;;;5023807;28;87142;-47
2021/09/22 00:05:13;;;;;;;;;;;15.80;61.70;;;;;;5021978;28;87160;-49
2021/09/22 00:07:39;;;;;;;;;;;15.80;61.70;;;;;;5021823;28;88068;-48
2021/09/22 00:10:10;;;;;;;;;;;15.80;61.70;;;;;;5021910;28;87975;-47
2021/09/22 00:12:35;;;;;;;;;;;15.80;61.70;;;;;;5021985;28;87995;-50
2021/09/22 00:15:01;;;;;;;;;;;15.80;61.70;;;;;;5020676;28;88696;-48
2021/09/22 00:17:27;;;;;;;;;;;15.80;61.80;;;;;;5018619;28;88593;-48
2021/09/22 00:19:52;;;;;;;;;;;15.80;61.70;;;;;;5018671;28;87152;-48
2021/09/22 00:22:18;;;;;;;;;;;15.80;61.70;;;;;;5020188;28;87210;-50
2021/09/22 00:24:43;;;;;;;;;;;15.80;61.70;;;;;;5023687;28;87495;-51
2021/09/22 00:27:09;;;;;;;;;;;15.80;61.60;;;;;;5020037;28;87429;-48
2021/09/22 00:29:34;;;;;;;;;;;15.70;61.60;;;;;;5020511;28;89126;-48
2021/09/22 00:32:00;;;;;;;;;;;15.80;61.60;;;;;;5021538;28;88131;-48
2021/09/22 00:34:26;;;;;;;;;;;15.70;61.60;;;;;;5021434;28;89892;-50
2021/09/22 00:36:51;;;;;;;;;;;15.70;61.60;;;;;;5021980;28;87660;-49
2021/09/22 00:39:17;;;;;;;;;;;15.70;61.70;;;;;;5022665;28;87220;-48
2021/09/22 00:41:42;;;;;;;;;;;15.70;61.70;;;;;;5021782;28;89707;-48
2021/09/22 00:44:08;;;;;;;;;;;15.70;61.70;;;;;;5022000;28;87519;-50
2021/09/22 00:46:34;;;;;;;;;;;15.70;61.80;;;;;;5024059;28;87128;-47
2021/09/22 00:48:59;;;;;;;;;;;15.70;61.70;;;;;;5020359;28;88016;-48
2021/09/22 00:51:25;;;;;;;;;;;15.70;61.80;;;;;;5019475;28;87181;-50
2021/09/22 00:53:51;;;;;;;;;;;15.70;61.80;;;;;;5019851;28;87999;-48
2021/09/22 00:56:17;;;;;;;;;;;15.60;61.80;;;;;;5019973;28;88516;-48
2021/09/22 00:58:43;;;;;;;;;;;15.60;61.70;;;;;;5020724;28;87208;-49
2021/09/22 01:01:08;;;;;;;;;;;15.60;61.70;;;;;;5021712;28;88602;-52
2021/09/22 01:03:34;;;;;;;;;;;15.60;61.60;;;;;;5019683;28;88586;-48
2021/09/22 01:06:00;;;;;;;;;;;15.60;61.50;;;;;;5020141;28;87135;-48
2021/09/22 01:08:27;;;;;;;;;;;15.60;61.40;;;;;;5019165;28;88905;-48
2021/09/22 01:10:53;;;;;;;;;;;15.60;61.40;;;;;;5020861;28;87154;-48
2021/09/22 01:13:18;;;;;;;;;;;15.50;61.40;;;;;;5020692;28;87169;-48
2021/09/22 01:15:44;;;;;;;;;;;15.50;61.50;;;;;;5018721;28;87472;-50
2021/09/22 01:18:14;;;;;;;;;;;15.60;61.40;;;;;;5017943;28;87170;-49
2021/09/22 01:20:40;;;;;;;;;;;15.60;61.40;;;;;;5017454;28;88169;-48
2021/09/22 01:23:08;;;;;;;;;;;15.50;61.40;;;;;;5018164;28;89834;-48
2021/09/22 01:25:34;;;;;;;;;;;15.50;61.50;;;;;;5019319;28;87974;-48
2021/09/22 01:28:01;;;;;;;;;;;15.50;61.50;;;;;;5023432;28;87772;-49
2021/09/22 01:30:27;;;;;;;;;;;15.50;61.60;;;;;;5019576;28;87164;-48
2021/09/22 01:33:13;;;;;;;;;;;15.50;61.50;;;;;;5019646;28;87340;-48
2021/09/22 01:35:39;;;;;;;;;;;15.50;61.50;;;;;;5019772;28;87703;-49
2021/09/22 01:38:07;;;;;;;;;;;15.50;61.40;;;;;;5019534;28;86497;-49
2021/09/22 01:40:32;;;;;;;;;;;15.50;61.20;;;;;;5019750;28;87158;-49
2021/09/22 01:42:58;;;;;;;;;;;15.50;61.20;;;;;;5019034;28;88504;-48
2021/09/22 01:45:23;;;;;;;;;;;15.50;61.30;;;;;;5019489;28;88148;-51
2021/09/22 01:47:49;;;;;;;;;;;15.50;61.10;;;;;;5020925;28;89809;-52
2021/09/22 01:50:17;;;;;;;;;;;15.50;61.10;;;;;;5023766;28;88092;-49
2021/09/22 01:52:43;;;;;;;;;;;15.40;61.00;;;;;;5019061;28;87623;-50
2021/09/22 01:55:09;;;;;;;;;;;15.40;61.10;;;;;;5016564;28;90202;-48
2021/09/22 01:57:35;;;;;;;;;;;15.40;61.00;;;;;;5018848;28;87131;-48
2021/09/22 02:00:00;;;;;;;;;;;15.40;61.10;;;;;;5019536;28;87944;-48
2021/09/22 02:02:26;;;;;;;;;;;15.40;61.10;;;;;;5020872;28;88785;-48
2021/09/22 02:04:52;;;;;;;;;;;15.40;61.20;;;;;;5020919;28;87251;-48
2021/09/22 02:07:17;;;;;;;;;;;15.40;61.10;;;;;;5021270;28;87428;-50
2021/09/22 02:09:43;;;;;;;;;;;15.40;61.10;;;;;;5017047;28;89734;-50
2021/09/22 02:12:08;;;;;;;;;;;15.30;61.00;;;;;;5020113;28;87109;-48
2021/09/22 02:14:34;;;;;;;;;;;15.40;61.00;;;;;;5015783;28;87122;-48
2021/09/22 02:17:00;;;;;;;;;;;15.30;61.10;;;;;;5018325;28;87155;-48
2021/09/22 02:19:25;;;;;;;;;;;15.30;61.00;;;;;;5018099;28;87544;-48
2021/09/22 02:21:51;;;;;;;;;;;15.30;61.10;;;;;;5017263;28;89041;-49
2021/09/22 02:24:17;;;;;;;;;;;15.30;61.20;;;;;;5018678;28;87107;-48
2021/09/22 02:26:42;;;;;;;;;;;15.30;61.30;;;;;;5020198;28;89400;-48
2021/09/22 02:29:08;;;;;;;;;;;15.30;61.30;;;;;;5019470;28;88113;-48
2021/09/22 02:31:33;;;;;;;;;;;15.30;61.30;;;;;;5018921;28;87157;-49
2021/09/22 02:33:59;;;;;;;;;;;15.30;61.30;;;;;;5019823;28;88197;-48
2021/09/22 02:36:25;;;;;;;;;;;15.30;61.40;;;;;;5017496;28;87173;-48
2021/09/22 02:38:51;;;;;;;;;;;15.30;61.50;;;;;;5017755;28;89245;-48
2021/09/22 02:41:17;;;;;;;;;;;15.30;61.40;;;;;;5018245;28;88180;-48
2021/09/22 02:43:42;;;;;;;;;;;15.30;61.20;;;;;;5017693;28;87117;-49
2021/09/22 02:46:08;;;;;;;;;;;15.30;61.30;;;;;;5016775;28;87234;-49
2021/09/22 02:48:33;;;;;;;;;;;15.30;61.20;;;;;;5015573;28;88982;-48
2021/09/22 02:50:59;;;;;;;;;;;15.30;61.30;;;;;;5017001;28;86486;-48
2021/09/22 02:53:24;;;;;;;;;;;15.20;61.40;;;;;;5017178;28;87138;-49
2021/09/22 02:55:50;;;;;;;;;;;15.20;61.40;;;;;;5018994;28;89638;-48
2021/09/22 02:58:15;;;;;;;;;;;15.20;61.30;;;;;;5016974;28;88084;-48
2021/09/22 03:00:41;;;;;;;;;;;15.20;61.20;;;;;;5018499;28;87938;-48
2021/09/22 03:03:07;;;;;;;;;;;15.20;61.20;;;;;;5019399;28;87204;-49
2021/09/22 03:05:32;;;;;;;;;;;15.20;61.30;;;;;;5020203;28;88980;-48
2021/09/22 03:07:58;;;;;;;;;;;15.20;61.50;;;;;;5017090;28;88544;-48
2021/09/22 03:10:24;;;;;;;;;;;15.20;61.50;;;;;;5016109;28;87182;-51
2021/09/22 03:12:49;;;;;;;;;;;15.20;61.30;;;;;;5015978;28;87823;-52
2021/09/22 03:15:15;;;;;;;;;;;15.20;61.60;;;;;;5019942;28;88559;-51
2021/09/22 03:17:41;;;;;;;;;;;15.20;61.40;;;;;;5018245;28;87133;-48
2021/09/22 03:20:07;;;;;;;;;;;15.10;61.30;;;;;;5018597;28;88136;-52
2021/09/22 03:22:32;;;;;;;;;;;15.10;61.20;;;;;;5019176;28;88055;-53
2021/09/22 03:24:58;;;;;;;;;;;15.10;61.40;;;;;;5020206;28;88045;-48
2021/09/22 03:27:23;;;;;;;;;;;15.10;61.30;;;;;;5019488;28;88345;-51
2021/09/22 03:29:49;;;;;;;;;;;15.10;61.40;;;;;;5020820;28;88599;-47
2021/09/22 03:32:15;;;;;;;;;;;15.10;61.40;;;;;;5021288;28;88191;-48
2021/09/22 03:34:40;;;;;;;;;;;15.10;61.40;;;;;;5018673;28;87641;-48
2021/09/22 03:37:06;;;;;;;;;;;15.10;61.30;;;;;;5023370;28;87137;-48
2021/09/22 03:39:32;;;;;;;;;;;15.10;61.30;;;;;;5019954;28;87003;-52
2021/09/22 03:41:57;;;;;;;;;;;15.10;61.10;;;;;;5020990;28;87208;-48
2021/09/22 03:44:25;;;;;;;;;;;15.10;61.30;;;;;;5021804;28;89047;-48
2021/09/22 03:46:51;;;;;;;;;;;15.10;61.50;;;;;;5018956;28;90252;-48
2021/09/22 03:49:16;;;;;;;;;;;15.10;61.30;;;;;;5019550;28;87162;-48
2021/09/22 03:51:42;;;;;;;;;;;15.00;61.30;;;;;;5020824;28;88872;-48
2021/09/22 03:54:08;;;;;;;;;;;15.00;61.20;;;;;;5020826;28;88768;-50
2021/09/22 03:56:33;;;;;;;;;;;15.10;61.40;;;;;;5021800;28;87157;-48
2021/09/22 03:59:00;;;;;;;;;;;15.00;61.40;;;;;;5025617;28;87161;-49
2021/09/22 04:01:26;;;;;;;;;;;15.00;61.40;;;;;;5021832;28;87134;-52
2021/09/22 04:03:52;;;;;;;;;;;15.00;61.50;;;;;;5023463;28;87505;-50
2021/09/22 04:06:17;;;;;;;;;;;15.00;61.50;;;;;;5021131;28;88119;-47
2021/09/22 04:08:43;;;;;;;;;;;15.00;61.50;;;;;;5018356;28;87175;-48
2021/09/22 04:11:08;;;;;;;;;;;15.00;61.50;;;;;;5019026;28;88143;-48
2021/09/22 04:13:34;;;;;;;;;;;14.90;61.60;;;;;;5019111;28;88259;-48
2021/09/22 04:15:59;;;;;;;;;;;15.00;61.50;;;;;;5020434;28;87116;-48
2021/09/22 04:18:25;;;;;;;;;;;15.00;61.40;;;;;;5021698;28;88144;-49
2021/09/22 04:20:50;;;;;;;;;;;15.00;61.50;;;;;;5025701;28;87484;-48
2021/09/22 04:23:16;;;;;;;;;;;15.00;61.50;;;;;;5020397;28;88089;-48
2021/09/22 04:25:41;;;;;;;;;;;15.00;61.40;;;;;;5018100;28;89133;-48
2021/09/22 04:28:07;;;;;;;;;;;14.90;61.60;;;;;;5020254;28;86444;-48
2021/09/22 04:30:33;;;;;;;;;;;14.90;61.60;;;;;;5020527;28;87133;-48
2021/09/22 04:32:58;;;;;;;;;;;14.90;62.20;;;;;;5019180;28;91120;-48
2021/09/22 04:35:24;;;;;;;;;;;14.90;61.50;;;;;;5021053;28;88128;-53
2021/09/22 04:37:49;;;;;;;;;;;14.90;61.60;;;;;;5021048;28;89108;-52
2021/09/22 04:40:15;;;;;;;;;;;14.90;61.60;;;;;;5018605;28;89211;-48
2021/09/22 04:42:41;;;;;;;;;;;14.90;61.60;;;;;;5021603;28;87139;-48
2021/09/22 04:45:07;;;;;;;;;;;14.90;61.60;;;;;;5018779;28;89027;-50
2021/09/22 04:47:33;;;;;;;;;;;14.90;61.60;;;;;;5019550;28;87189;-48
2021/09/22 04:50:03;;;;;;;;;;;14.90;61.60;;;;;;5019283;28;89014;-48
2021/09/22 04:52:28;;;;;;;;;;;14.90;61.50;;;;;;5021654;28;87825;-48
2021/09/22 04:54:54;;;;;;;;;;;14.90;61.60;;;;;;5022365;28;87161;-49
2021/09/22 04:57:19;;;;;;;;;;;14.90;61.70;;;;;;5022281;28;87743;-52
2021/09/22 04:59:45;;;;;;;;;;;14.90;61.70;;;;;;5019232;28;89528;-48
2021/09/22 05:02:10;;;;;;;;;;;14.80;61.80;;;;;;5020203;28;88808;-49
2021/09/22 05:04:36;;;;;;;;;;;14.80;61.80;;;;;;5020896;28;88641;-50
2021/09/22 05:07:02;;;;;;;;;;;14.80;61.80;;;;;;5017522;28;88326;-49
2021/09/22 05:09:27;;;;;;;;;;;14.80;61.70;;;;;;5018462;28;87872;-48
2021/09/22 05:11:54;;;;;;;;;;;14.80;61.80;;;;;;5019045;28;88400;-48
2021/09/22 05:14:20;;;;;;;;;;;14.80;61.80;;;;;;5017546;28;87118;-48
2021/09/22 05:16:46;;;;;;;;;;;14.80;61.70;;;;;;5017879;28;86772;-51
2021/09/22 05:19:11;;;;;;;;;;;14.80;61.80;;;;;;5017659;28;89547;-48
2021/09/22 05:21:37;;;;;;;;;;;14.80;61.80;;;;;;5019331;28;87224;-48
2021/09/22 05:24:02;;;;;;;;;;;14.80;61.70;;;;;;5021725;28;89125;-49
2021/09/22 05:26:28;;;;;;;;;;;14.80;61.80;;;;;;5020039;28;87205;-49
2021/09/22 05:28:53;;;;;;;;;;;14.80;61.80;;;;;;5021247;28;87497;-48
2021/09/22 05:31:19;;;;;;;;;;;14.80;61.80;;;;;;5020646;28;90265;-48
2021/09/22 05:33:45;;;;;;;;;;;14.80;61.60;;;;;;5018153;28;87180;-48
2021/09/22 05:36:10;;;;;;;;;;;14.70;61.70;;;;;;5017382;28;87167;-49
2021/09/22 05:38:36;;;;;;;;;;;14.80;61.70;;;;;;5016931;28;88247;-48
2021/09/22 05:41:01;;;;;;;;;;;14.70;61.70;;;;;;5018011;28;86460;-48
2021/09/22 05:43:27;;;;;;;;;;;14.70;61.50;;;;;;5018916;28;87178;-48
2021/09/22 05:45:52;;;;;;;;;;;14.70;61.60;;;;;;5022510;28;87889;-48
2021/09/22 05:48:18;;;;;;;;;;;14.70;61.40;;;;;;5019689;28;88065;-49
2021/09/22 05:50:43;;;;;;;;;;;14.80;61.60;;;;;;5019509;28;88511;-48
2021/09/22 05:53:09;;;;;;;;;;;14.80;61.70;;;;;;5020879;28;87230;-48
2021/09/22 05:55:35;;;;;;;;;;;14.70;61.60;;;;;;5019556;28;87905;-48
2021/09/22 05:58:00;;;;;;;;;;;14.70;61.50;;;;;;5017519;28;88855;-48
2021/09/22 06:00:26;;;;;;;;;;;14.70;61.40;;;;;;5016486;28;88054;-52
2021/09/22 06:02:51;;;;;;;;;;;14.70;61.50;;;;;;5018169;28;89392;-52
2021/09/22 06:05:17;;;;;;;;;;;14.70;61.60;;;;;;5017351;28;87074;-48
2021/09/22 06:07:42;;;;;;;;;;;14.70;61.60;;;;;;5021403;28;87180;-52
2021/09/22 06:10:08;;;;;;;;;;;14.70;61.60;;;;;;5018485;28;87897;-50
2021/09/22 06:12:33;;;;;;;;;;;14.70;61.60;;;;;;5016847;28;88094;-48
2021/09/22 06:14:59;;;;;;;;;;;14.70;61.40;;;;;;5016916;28;87709;-52
2021/09/22 06:17:25;;;;;;;;;;;14.70;61.40;;;;;;5015907;28;88327;-51
2021/09/22 06:19:50;;;;;;;;;;;14.60;61.40;;;;;;5017971;28;88009;-50
2021/09/22 06:22:22;;;;;;;;;;;14.60;61.50;;;;;;5016827;28;88755;-48
2021/09/22 06:24:48;;;;;;;;;;;14.70;61.40;;;;;;5019466;28;88736;-47
2021/09/22 06:27:13;;;;;;;;;;;14.70;61.30;;;;;;5019522;28;87197;-51
2021/09/22 06:29:39;;;;;;;;;;;14.60;61.30;;;;;;5023172;28;89076;-50
2021/09/22 06:32:05;;;;;;;;;;;14.60;61.30;;;;;;5018593;28;88477;-48
2021/09/22 06:34:31;;;;;;;;;;;14.70;61.30;;;;;;5020911;28;88818;-48
2021/09/22 06:36:56;;;;;;;;;;;14.60;61.20;;;;;;5018876;28;89902;-48
2021/09/22 06:39:22;;;;;;;;;;;14.60;61.20;;;;;;5016304;28;88099;-48
2021/09/22 06:41:47;;;;;;;;;;;14.60;61.20;;;;;;5016761;28;88017;-48
2021/09/22 06:44:13;;;;;;;;;;;14.60;61.00;;;;;;5016720;28;88642;-48
2021/09/22 06:46:38;;;;;;;;;;;14.60;60.90;;;;;;5017744;28;87161;-52
2021/09/22 06:49:04;;;;;;;;;;;14.60;60.90;;;;;;5018217;28;88088;-49
2021/09/22 06:51:29;;;;;;;;;;;14.60;60.80;;;;;;5021290;28;89560;-48
2021/09/22 06:53:55;;;;;;;;;;;14.60;60.90;;;;;;5018608;28;88761;-48
2021/09/22 06:56:24;;;;;;;;;;;14.60;60.90;;;;;;5017261;28;87889;-53
2021/09/22 06:58:49;;;;;;;;;;;14.60;60.90;;;;;;5019614;28;88129;-50
2021/09/22 07:01:15;;;;;;;;;;;14.60;60.90;;;;;;5015393;28;89427;-48
2021/09/22 07:03:40;;;;;;;;;;;14.50;60.60;;;;;;5016268;28;88096;-48
2021/09/22 07:06:09;;;;;;;;;;;14.50;60.70;;;;;;5017984;28;87173;-48
2021/09/22 07:08:34;;;;;;;;;;;14.50;60.70;;;;;;5016496;28;89536;-48
2021/09/22 07:11:00;;;;;;;;;;;14.50;60.70;;;;;;5015980;28;88162;-49
2021/09/22 07:13:26;;;;;;;;;;;14.50;60.50;;;;;;5020327;28;87113;-48
2021/09/22 07:15:51;;;;;;;;;;;14.50;60.70;;;;;;5018080;28;89032;-49
2021/09/22 07:18:18;;;;;;;;;;;14.50;60.60;;;;;;5020397;28;86380;-49
2021/09/22 07:20:44;;;;;;;;;;;14.50;61.20;;;;;;5018901;28;88324;-48
2021/09/22 07:23:09;;;;;;;;;;;14.50;60.60;;;;;;5019139;28;87845;-51
2021/09/22 07:25:35;;;;;;;;;;;14.50;60.70;;;;;;5019087;28;88091;-53
2021/09/22 07:28:01;;;;;;;;;;;14.50;60.60;;;;;;5020260;28;88172;-51
2021/09/22 07:30:26;;;;;;;;;;;14.50;60.70;;;;;;5019333;28;89017;-48
2021/09/22 07:32:52;;;;;;;;;;;14.50;60.70;;;;;;5019500;28;88641;-48
2021/09/22 07:35:18;;;;;;;;;;;14.50;60.50;;;;;;5014083;28;91218;-49
2021/09/22 07:37:44;;;;;;;;;;;14.50;60.50;;;;;;5016771;28;87114;-49
2021/09/22 07:40:10;;;;;;;;;;;14.50;60.60;;;;;;5015590;28;89600;-48
2021/09/22 07:42:36;;;;;;;;;;;14.40;60.50;;;;;;5016884;28;90353;-49
2021/09/22 07:45:02;;;;;;;;;;;14.40;60.60;;;;;;5017984;28;87158;-49
2021/09/22 07:47:28;;;;;;;;;;;14.40;60.50;;;;;;5017235;28;88487;-49
2021/09/22 07:49:53;;;;;;;;;;;14.50;60.40;;;;;;5016955;28;88759;-48
2021/09/22 07:52:19;;;;;;;;;;;14.40;60.50;;;;;;5019205;28;87165;-49
2021/09/22 07:54:45;;;;;;;;;;;14.40;60.50;;;;;;5022010;28;88612;-48
2021/09/22 07:57:11;;;;;;;;;;;14.50;60.50;;;;;;5016558;28;87292;-48
2021/09/22 07:59:37;;;;;;;;;;;14.50;60.50;;;;;;5015203;28;87682;-52
2021/09/22 08:02:03;;;;;;;;;;;14.40;60.50;;;;;;5015069;28;87197;-48
2021/09/22 08:04:28;;;;;;;;;;;14.50;60.60;;;;;;5016237;28;87153;-49
2021/09/22 08:06:56;;;;;;;;;;;14.40;60.50;;;;;;5018047;28;87902;-51
2021/09/22 08:09:22;;;;;;;;;;;14.40;60.60;;;;;;5015742;28;88670;-49
2021/09/22 08:11:47;;;;;;;;;;;14.40;60.70;;;;;;5016991;28;87204;-47
2021/09/22 08:14:13;;;;;;;;;;;14.50;60.70;;;;;;5019427;28;88038;-50
2021/09/22 08:16:38;;;;;;;;;;;14.40;60.60;;;;;;5023686;28;90041;-48
2021/09/22 08:19:04;;;;;;;;;;;14.50;60.70;;;;;;5022261;28;89861;-49
2021/09/22 08:21:29;;;;;;;;;;;14.40;60.60;;;;;;5021231;28;89884;-49
2021/09/22 08:23:55;;;;;;;;;;;14.40;60.70;;;;;;5018553;28;88516;-48
2021/09/22 08:26:20;;;;;;;;;;;14.40;60.70;;;;;;5019437;28;87442;-49
2021/09/22 08:28:46;;;;;;;;;;;14.40;60.70;;;;;;5019982;28;89462;-48
2021/09/22 08:31:11;;;;;;;;;;;14.40;60.60;;;;;;5022225;28;86430;-48
2021/09/22 08:33:37;;;;;;;;;;;14.40;60.70;;;;;;5022777;28;88424;-49
2021/09/22 08:36:03;;;;;;;;;;;14.40;60.70;;;;;;4979699;28;89725;-48
2021/09/22 08:38:28;;;;;;;;;;;14.40;60.70;;;;;;4980771;28;88077;-48
2021/09/22 08:40:54;;;;;;;;;;;14.40;60.80;;;;;;4978897;27;89505;-48
2021/09/22 08:43:24;;;;;;;;;;;14.30;60.50;;;;;;4980802;28;87231;-48
2021/09/22 08:45:49;;;;;;;;;;;14.30;60.70;;;;;;4982830;28;87629;-50
2021/09/22 08:48:15;;;;;;;;;;;14.40;60.70;;;;;;4979923;28;88801;-49
2021/09/22 08:50:41;;;;;;;;;;;14.30;60.60;;;;;;4978230;28;87132;-50
2021/09/22 08:53:07;;;;;;;;;;;14.30;60.50;;;;;;4978938;28;87819;-49
2021/09/22 08:55:32;;;;;;;;;;;14.30;60.50;;;;;;4979676;28;87627;-47
2021/09/22 08:58:00;;;;;;;;;;;14.30;60.50;;;;;;4980730;28;87171;-48
2021/09/22 09:00:26;;;;;;;;;;;14.30;60.30;;;;;;4982010;28;87261;-53
2021/09/22 09:02:51;;;;;;;;;;;14.30;60.30;;;;;;4979592;28;88152;-48
2021/09/22 09:05:18;;;;;;;;;;;14.40;60.30;;;;;;4981333;28;87953;-49
2021/09/22 09:07:47;;;;;;;;;;;14.40;60.30;;;;;;4980149;28;89548;-51
2021/09/22 09:10:13;;;;;;;;;;;14.40;60.30;;;;;;4979603;28;87170;-51
2021/09/22 09:12:39;;;;;;;;;;;14.30;60.30;;;;;;4977766;28;88680;-49
2021/09/22 09:15:09;;;;;;;;;;;14.30;60.20;;;;;;4977691;28;88083;-48
2021/09/22 09:17:58;;;;;;;;;;;14.30;60.50;;;;;;4979300;28;87125;-48
2021/09/22 09:20:24;;;;;;;;;;;14.30;60.50;;;;;;4985010;28;89208;-48
2021/09/22 09:23:02;;;;;;;;;;;14.30;60.50;;;;;;4980817;28;88850;-51
2021/09/22 09:25:30;;;;;;;;;;;14.30;60.50;;;;;;4981177;28;87578;-49
2021/09/22 09:27:55;;;;;;;;;;;14.30;60.50;;;;;;4978503;28;88934;-49
2021/09/22 09:30:22;;;;;;;;;;;14.30;60.60;;;;;;4980454;28;87137;-50
2021/09/22 09:32:48;;;;;;;;;;;14.30;60.60;;;;;;4979892;28;88748;-48
2021/09/22 09:35:15;;;;;;;;;;;14.30;60.70;;;;;;5006725;28;89140;-49
2021/09/22 09:37:43;;;;;;;;;;;14.30;60.60;;;;;;5019835;28;87123;-48
2021/09/22 09:40:24;;;;;;;;;;;14.20;60.70;;;;;;5017073;28;87143;-49
2021/09/22 09:42:52;;;;;;;;;;;14.30;60.80;;;;;;5020329;28;89306;-48
2021/09/22 09:45:20;;;;;;;;;;;14.20;60.80;;;;;;5021951;28;88912;-51
2021/09/22 09:48:18;;;;;;;;;;;14.20;59.60;;;;;;5017802;28;90072;-48
2021/09/22 09:50:52;;;;;;;;;;;14.10;57.60;;;;;;5008079;28;87174;-56
2021/09/22 09:53:26;;;;;;;;;;;14.10;57.10;;;;;;5021134;28;88206;-49
2021/09/22 09:55:52;;;;;;;;;;;14.00;56.60;;;;;;5016432;28;89858;-48
2021/09/22 09:58:18;;;;;;;;;;;13.90;56.00;;;;;;5017255;28;87121;-50
2021/09/22 10:00:45;;;;;;;;;;;13.90;56.90;;;;;;5017411;28;88025;-55
2021/09/22 10:03:13;;;;;;;;;;;14.00;56.70;;;;;;5021035;28;89451;-58
2021/09/22 10:05:39;;;;;;;;;;;13.90;56.40;;;;;;5020166;28;87127;-57
2021/09/22 10:08:05;;;;;;;;;;;14.00;55.60;;;;;;5016722;28;88734;-57
2021/09/22 10:10:31;;;;;;;;;;;13.90;55.50;;;;;;5017274;28;86482;-58
2021/09/22 10:12:57;;;;;;;;;;;13.90;55.40;;;;;;5016117;28;90164;-58
2021/09/22 10:15:24;;;;;;;;;;;13.80;55.20;;;;;;5017649;28;88979;-58
2021/09/22 10:17:50;;;;;;;;;;;13.80;54.90;;;;;;5017371;28;88185;-58
2021/09/22 10:20:18;;;;;;;;;;;13.80;54.70;;;;;;5018189;28;88128;-58
2021/09/22 10:22:44;;;;;;;;;;;13.80;55.00;;;;;;5017675;28;88690;-58
2021/09/22 10:25:10;;;;;;;;;;;13.70;55.60;;;;;;5016998;28;87188;-59
2021/09/22 10:27:36;;;;;;;;;;;13.80;56.10;;;;;;5020200;28;88360;-59
2021/09/22 10:30:04;;;;;;;;;;;13.80;56.00;;;;;;5017421;28;87177;-59
2021/09/22 10:32:38;;;;;;;;;;;13.80;56.40;;;;;;5019214;28;89251;-59
2021/09/22 10:35:22;;;;;;;;;;;13.90;56.70;;;;;;5016276;28;88621;-59
2021/09/22 10:37:48;;;;;;;;;;;13.90;56.70;;;;;;5018849;28;87117;-58
2021/09/22 10:40:16;;;;;;;;;;;13.90;56.80;;;;;;5017803;28;87245;-59
2021/09/22 10:42:43;;;;;;;;;;;13.90;57.00;;;;;;5018531;28;90093;-59
2021/09/22 10:45:13;;;;;;;;;;;14.00;57.20;;;;;;5019885;28;87145;-56
2021/09/22 10:47:38;;;;;;;;;;;14.00;57.30;;;;;;5016336;28;89189;-55
2021/09/22 10:50:04;;;;;;;;;;;13.90;56.00;;;;;;5019289;28;88167;-58
2021/09/22 10:52:30;;;;;;;;;;;13.90;56.60;;;;;;5017679;28;87164;-59
2021/09/22 10:55:05;;;;;;;;;;;13.90;56.90;;;;;;5017677;28;88042;-58
2021/09/22 10:57:30;;;;;;;;;;;13.90;57.20;;;;;;5020743;28;88774;-58
2021/09/22 11:00:08;;;;;;;;;;;13.90;57.40;;;;;;5017869;28;87708;-58
2021/09/22 11:02:45;;;;;;;;;;;14.00;57.50;;;;;;5019828;28;87678;-58
2021/09/22 11:05:13;;;;;;;;;;;14.00;57.50;;;;;;5019223;28;87168;-59
2021/09/22 11:08:01;;;;;;;;;;;14.00;57.60;;;;;;5017462;28;88158;-59
2021/09/22 11:10:32;;;;;;;;;;;14.00;57.80;;;;;;5015871;28;90154;-59
2021/09/22 11:13:17;;;;;;;;;;;13.90;58.10;;;;;;5019021;28;87185;-59
2021/09/22 11:15:43;;;;;;;;;;;14.00;58.20;;;;;;5018945;28;88296;-58
2021/09/22 11:18:09;;;;;;;;;;;14.00;58.20;;;;;;5019621;28;87228;-59
2021/09/22 11:20:34;;;;;;;;;;;14.00;58.20;;;;;;5018674;28;87457;-59
2021/09/22 11:23:07;;;;;;;;;;;14.00;58.30;;;;;;5017769;28;88241;-59
2021/09/22 11:25:32;;;;;;;;;;;14.00;58.30;;;;;;5017324;28;88053;-59
2021/09/22 11:28:04;;;;;;;;;;;14.00;58.30;;;;;;5016225;28;88099;-59
2021/09/22 11:30:30;;;;;;;;;;;14.00;58.40;;;;;;5015095;28;89924;-59
2021/09/22 11:32:55;;;;;;;;;;;14.00;58.30;;;;;;5018706;28;88091;-59
2021/09/22 11:35:22;;;;;;;;;;;14.00;58.40;;;;;;5017125;28;88345;-59
2021/09/22 11:37:48;;;;;;;;;;;14.00;58.50;;;;;;5015887;28;87156;-59
2021/09/22 11:40:19;;;;;;;;;;;14.00;57.60;;;;;;5015137;28;88406;-59
2021/09/22 11:43:05;;;;;;;;;;;14.00;57.10;;;;;;5019971;28;87683;-59
2021/09/22 11:45:34;;;;;;;;;;;13.90;57.00;;;;;;5018819;28;87206;-59
2021/09/22 11:47:59;;;;;;;;;;;13.80;57.00;;;;;;5019833;28;87211;-60
2021/09/22 11:50:31;;;;;;;;;;;13.90;57.30;;;;;;5020950;28;87661;-59
2021/09/22 11:52:56;;;;;;;;;;;13.90;57.50;;;;;;5021184;28;87233;-59
2021/09/22 11:55:22;;;;;;;;;;;13.90;58.20;;;;;;5024817;28;87377;-59
2021/09/22 11:57:48;;;;;;;;;;;13.90;57.60;;;;;;5022646;28;88053;-59
2021/09/22 12:00:18;;;;;;;;;;;13.90;57.80;;;;;;5021969;28;90016;-59
2021/09/22 12:02:43;;;;;;;;;;;13.90;58.00;;;;;;5019084;28;88169;-59
2021/09/22 12:05:12;;;;;;;;;;;13.90;58.10;;;;;;5020202;28;87210;-59
2021/09/22 12:07:38;;;;;;;;;;;13.90;58.30;;;;;;5022637;28;88078;-59
2021/09/22 12:10:04;;;;;;;;;;;13.90;58.30;;;;;;5020031;28;88303;-59
2021/09/22 12:12:33;;;;;;;;;;;13.90;58.30;;;;;;5018621;28;87101;-59
2021/09/22 12:14:59;;;;;;;;;;;13.90;58.40;;;;;;5021953;28;87776;-59
2021/09/22 12:17:28;;;;;;;;;;;13.90;58.50;;;;;;5024987;28;87517;-59
2021/09/22 12:19:54;;;;;;;;;;;13.90;58.60;;;;;;5018300;28;87119;-59
2021/09/22 12:22:24;;;;;;;;;;;13.90;58.60;;;;;;5017160;28;89677;-58
2021/09/22 12:24:50;;;;;;;;;;;13.90;58.70;;;;;;5020380;28;87097;-59
2021/09/22 12:27:19;;;;;;;;;;;13.90;58.80;;;;;;5021267;28;88695;-59
2021/09/22 12:29:51;;;;;;;;;;;13.90;58.80;;;;;;5020316;28;88417;-59
2021/09/22 12:32:17;;;;;;;;;;;13.90;58.90;;;;;;5021135;28;87953;-59
2021/09/22 12:34:43;;;;;;;;;;;13.90;58.80;;;;;;5018640;28;87919;-59
2021/09/22 12:37:15;;;;;;;;;;;13.90;58.90;;;;;;5017782;28;88164;-59
2021/09/22 12:39:55;;;;;;;;;;;13.90;59.10;;;;;;5026083;28;86372;-59
2021/09/22 12:42:21;;;;;;;;;;;13.90;59.00;;;;;;5020560;28;89055;-59
2021/09/22 12:45:01;;;;;;;;;;;13.90;59.10;;;;;;5021150;28;88100;-59
2021/09/22 12:47:28;;;;;;;;;;;13.90;59.20;;;;;;5018797;28;88072;-59
2021/09/22 12:50:11;;;;;;;;;;;13.90;59.30;;;;;;5020099;28;88961;-59
2021/09/22 12:52:37;;;;;;;;;;;13.90;59.20;;;;;;5018761;28;87131;-59
2021/09/22 12:55:12;;;;;;;;;;;13.90;59.30;;;;;;5019165;28;87953;-53
2021/09/22 12:57:42;;;;;;;;;;;13.90;58.90;;;;;;5018302;28;89485;-58
2021/09/22 13:00:26;;;;;;;;;;;13.90;58.60;;;;;;5020598;28;87114;-58
2021/09/22 13:03:05;;;;;;;;;;;13.90;58.80;;;;;;5022691;28;88749;-59
2021/09/22 13:05:50;;;;;;;;;;;13.90;58.80;;;;;;5020614;28;86442;-59
2021/09/22 13:08:18;;;;;;;;;;;13.90;58.90;;;;;;5020732;28;89617;-58
2021/09/22 13:10:58;;;;;;;;;;;13.90;59.10;;;;;;5018335;28;89419;-61
2021/09/22 13:13:24;;;;;;;;;;;13.90;58.70;;;;;;5018420;28;88147;-56
2021/09/22 13:15:54;;;;;;;;;;;13.80;60.20;;;;;;5020048;28;88408;-59
2021/09/22 13:18:21;;;;;;;;;;;13.90;62.10;;;;;;5021423;28;88462;-58
2021/09/22 13:20:47;;;;;;;;;;;13.90;61.80;;;;;;5020587;28;87100;-60
2021/09/22 13:23:22;;;;;;;;;;;14.00;62.40;;;;;;5021692;28;87172;-61
2021/09/22 13:25:48;;;;;;;;;;;14.00;63.40;;;;;;5021594;28;89713;-56
2021/09/22 13:28:14;;;;;;;;;;;14.00;63.30;;;;;;5017442;28;88842;-51
2021/09/22 13:30:39;;;;;;;;;;;14.00;63.30;;;;;;5017818;28;87851;-61
2021/09/22 13:33:05;;;;;;;;;;;14.10;63.50;;;;;;5017350;28;87916;-58
2021/09/22 13:35:31;;;;;;;;;;;14.10;63.50;;;;;;5024931;28;88042;-64
2021/09/22 13:37:58;;;;;;;;;;;14.10;60.60;;;;;;5036238;27;89189;-63
2021/09/22 13:40:23;;;;;;;;;;;14.20;61.70;;;;;;5038246;28;87241;-64
2021/09/22 13:42:49;;;;;;;;;;;14.20;62.30;;;;;;5037994;28;87145;-62
2021/09/22 13:45:14;;;;;;;;;;;14.10;62.10;;;;;;5041703;28;88748;-58
2021/09/22 13:47:40;;;;;;;;;;;14.10;62.50;;;;;;5037844;28;89651;-60
2021/09/22 13:50:06;;;;;;;;;;;14.10;62.40;;;;;;5041554;27;88382;-60
2021/09/22 13:52:31;;;;;;;;;;;14.20;62.30;;;;;;5042063;27;87187;-59
2021/09/22 13:54:57;;;;;;;;;;;14.30;61.70;;;;;;5040515;28;87463;-60
2021/09/22 13:57:22;;;;;;;;;;;14.40;62.20;;;;;;5038688;28;89033;-62
2021/09/22 13:59:48;;;;;;;;;;;14.40;62.50;;;;;;5039683;27;87932;-58
2021/09/22 14:02:13;;;;;;;;;;;14.40;62.10;;;;;;5040437;28;88110;-61
2021/09/22 14:04:39;;;;;;;;;;;14.50;62.20;;;;;;5039823;28;88290;-53
2021/09/22 14:07:04;;;;;;;;;;;14.40;60.10;;;;;;5044205;28;88894;-62
2021/09/22 14:09:30;;;;;;;;;;;14.10;60.70;;;;;;5041305;27;88277;-62
2021/09/22 14:11:55;;;;;;;;;;;14.20;61.90;;;;;;5038287;28;87191;-65
2021/09/22 14:14:21;;;;;;;;;;;14.30;61.60;;;;;;5037258;28;87810;-64